createdAt,value
2022-11-15T00:02:11.649Z,101013.25
2022-11-15T00:04:38.398Z,101017.69
2022-11-15T00:07:05.036Z,101018.59
2022-11-15T00:09:31.658Z,101018.59
2022-11-15T00:11:58.242Z,101004.59
2022-11-15T00:14:24.786Z,101006.37
2022-11-15T00:16:51.361Z,101011.72
2022-11-15T00:19:17.948Z,101013.53
2022-11-15T00:21:44.498Z,101012.66
2022-11-15T00:24:11.276Z,101005.69
2022-11-15T00:26:37.843Z,101010.16
2022-11-15T00:29:04.483Z,101002.22
2022-11-15T00:31:31.105Z,101005.75
2022-11-15T00:33:57.637Z,101013.72
2022-11-15T00:36:24.205Z,101007.63
2022-11-15T00:38:50.762Z,101005.88
2022-11-15T00:41:17.307Z,101003.28
2022-11-15T00:43:44.790Z,100995.41
2022-11-15T00:46:11.525Z,100993.69
2022-11-15T00:48:38.252Z,100992.81
2022-11-15T00:51:04.832Z,100992.00
2022-11-15T00:53:31.758Z,100981.47
2022-11-15T00:55:58.456Z,100977.09
2022-11-15T00:58:25.032Z,100975.44
2022-11-15T01:00:51.645Z,100983.38
2022-11-15T01:03:18.247Z,100980.78
2022-11-15T01:05:44.829Z,100980.81
2022-11-15T01:08:15.162Z,100980.81
2022-11-15T01:10:41.803Z,100981.69
2022-11-15T01:13:08.525Z,100981.75
2022-11-15T01:15:35.098Z,100976.47
2022-11-15T01:18:01.674Z,100968.56
2022-11-15T01:20:28.229Z,100964.22
2022-11-15T01:22:55.175Z,100968.63
2022-11-15T01:25:21.740Z,100958.13
2022-11-15T01:27:48.378Z,100960.78
2022-11-15T01:30:15.092Z,100956.41
2022-11-15T01:32:41.653Z,100952.00
2022-11-15T01:35:08.602Z,100954.75
2022-11-15T01:37:35.299Z,100947.69
2022-11-15T01:40:01.993Z,100957.41
2022-11-15T01:42:28.590Z,100950.41
2022-11-15T01:44:58.156Z,100946.03
2022-11-15T01:47:27.114Z,100954.00
2022-11-15T01:49:57.854Z,100944.31
2022-11-15T01:52:26.792Z,100947.00
2022-11-15T01:54:57.846Z,100944.38
2022-11-15T01:57:24.762Z,100944.38
2022-11-15T01:59:51.333Z,100941.78
2022-11-15T02:02:17.905Z,100947.97
2022-11-15T02:04:46.389Z,100940.06
2022-11-15T02:07:17.372Z,100938.34
2022-11-15T02:09:44.679Z,100934.03
2022-11-15T02:12:11.324Z,100931.38
2022-11-15T02:14:39.243Z,100932.25
2022-11-15T02:17:32.866Z,100924.44
2022-11-15T02:20:29.189Z,100933.22
2022-11-15T02:23:10.750Z,100925.37
2022-11-15T02:25:40.957Z,100928.91
2022-11-15T02:28:25.778Z,100927.19
2022-11-15T02:31:14.934Z,100921.91
2022-11-15T02:33:54.476Z,100921.06
2022-11-15T02:36:34.931Z,100916.72
2022-11-15T02:39:06.691Z,100909.69
2022-11-15T02:41:57.469Z,100919.34
2022-11-15T02:44:36.276Z,100907.06
2022-11-15T02:47:13.800Z,100900.06
2022-11-15T02:49:42.502Z,100908.91
2022-11-15T02:52:09.049Z,100904.50
2022-11-15T02:54:35.764Z,100907.13
2022-11-15T02:57:05.074Z,100913.31
2022-11-15T02:59:53.304Z,100915.94
2022-11-15T03:02:35.012Z,100914.22
2022-11-15T03:05:33.367Z,100906.25
2022-11-15T03:08:16.487Z,100917.72
2022-11-15T03:10:56.070Z,100909.88
2022-11-15T03:13:25.501Z,100908.97
2022-11-15T03:16:18.301Z,100914.25
2022-11-15T03:18:49.000Z,100916.94
2022-11-15T03:21:15.538Z,100904.66
2022-11-15T03:23:42.139Z,100898.50
2022-11-15T03:26:12.245Z,100908.19
2022-11-15T03:28:53.529Z,100902.06
2022-11-15T03:31:39.064Z,100883.63
2022-11-15T03:34:06.180Z,100889.75
2022-11-15T03:36:32.749Z,100884.47
2022-11-15T03:39:01.030Z,100880.06
2022-11-15T03:41:30.946Z,100883.59
2022-11-15T03:44:01.368Z,100887.97
2022-11-15T03:46:41.342Z,100878.00
2022-11-15T03:49:19.628Z,100889.06
2022-11-15T03:51:47.109Z,100881.91
2022-11-15T03:54:13.853Z,100874.13
2022-11-15T03:56:40.396Z,100871.25
2022-11-15T03:59:06.980Z,100865.38
2022-11-15T04:01:33.695Z,100858.38
2022-11-15T04:04:00.340Z,100847.37
2022-11-15T04:06:26.926Z,100840.28
2022-11-15T04:08:53.527Z,100836.13
2022-11-15T04:11:20.145Z,100826.38
2022-11-15T04:13:46.739Z,100820.66
2022-11-15T04:16:13.371Z,100817.00
2022-11-15T04:18:39.922Z,100808.50
2022-11-15T04:21:25.080Z,100812.78
2022-11-15T04:23:54.201Z,100819.03
2022-11-15T04:26:22.187Z,100819.44
2022-11-15T04:29:07.363Z,100835.09
2022-11-15T04:31:34.160Z,100831.22
2022-11-15T04:34:00.719Z,100836.16
2022-11-15T04:36:45.855Z,100828.00
2022-11-15T04:39:12.574Z,100823.25
2022-11-15T04:41:39.142Z,100828.41
2022-11-15T04:44:05.717Z,100814.62
2022-11-15T04:46:33.165Z,100815.25
2022-11-15T04:48:59.759Z,100816.63
2022-11-15T04:51:26.559Z,100812.72
2022-11-15T04:53:53.124Z,100815.81
2022-11-15T04:56:20.061Z,100805.06
2022-11-15T04:58:46.589Z,100800.94
2022-11-15T05:01:15.563Z,100799.72
2022-11-15T05:04:01.439Z,100799.63
2022-11-15T05:06:27.821Z,100796.81
2022-11-15T05:08:54.384Z,100794.62
2022-11-15T05:11:21.569Z,100799.47
2022-11-15T05:13:48.126Z,100802.87
2022-11-15T05:16:14.689Z,100802.87
2022-11-15T05:18:43.992Z,100804.38
2022-11-15T05:21:12.187Z,100797.88
2022-11-15T05:23:39.086Z,100810.13
2022-11-15T05:26:09.198Z,100808.06
2022-11-15T05:28:36.047Z,100814.28
2022-11-15T05:31:06.601Z,100808.78
2022-11-15T05:33:33.660Z,100814.91
2022-11-15T05:36:16.586Z,100810.50
2022-11-15T05:38:43.245Z,100812.94
2022-11-15T05:41:09.796Z,100804.03
2022-11-15T05:43:36.959Z,100805.88
2022-11-15T05:46:03.534Z,100813.94
2022-11-15T05:48:30.087Z,100816.50
2022-11-15T05:50:56.648Z,100804.66
2022-11-15T05:53:23.219Z,100807.84
2022-11-15T05:55:49.922Z,100800.63
2022-11-15T05:58:16.507Z,100793.19
2022-11-15T06:00:44.226Z,100788.16
2022-11-15T06:03:11.473Z,100788.91
2022-11-15T06:05:38.026Z,100789.06
2022-11-15T06:08:04.782Z,100792.13
2022-11-15T06:10:31.353Z,100788.09
2022-11-15T06:13:02.052Z,100794.69
2022-11-15T06:15:28.739Z,100798.25
2022-11-15T06:18:01.039Z,100795.69
2022-11-15T06:20:28.396Z,100789.56
2022-11-15T06:23:02.079Z,100786.25
2022-11-15T06:25:29.092Z,100783.91
2022-11-15T06:27:56.495Z,100801.19
2022-11-15T06:30:23.402Z,100797.88
2022-11-15T06:32:49.984Z,100802.84
2022-11-15T06:35:16.744Z,100800.13
2022-11-15T06:37:43.347Z,100809.66
2022-11-15T06:40:10.647Z,100801.91
2022-11-15T06:42:37.198Z,100792.28
2022-11-15T06:45:04.051Z,100793.50
2022-11-15T06:47:30.598Z,100805.72
2022-11-15T06:49:57.170Z,100808.25
2022-11-15T06:52:24.615Z,100807.31
2022-11-15T06:54:51.187Z,100805.97
2022-11-15T06:57:17.730Z,100812.19
2022-11-15T06:59:44.269Z,100803.13
2022-11-15T07:02:13.724Z,100807.84
2022-11-15T07:04:40.377Z,100803.56
2022-11-15T07:07:07.056Z,100795.38
2022-11-15T07:09:33.668Z,100788.50
2022-11-15T07:12:04.597Z,100788.69
2022-11-15T07:14:34.028Z,100798.31
2022-11-15T07:17:00.627Z,100796.69
2022-11-15T07:19:27.202Z,100790.97
2022-11-15T07:21:53.774Z,100786.59
2022-11-15T07:24:20.336Z,100778.28
2022-11-15T07:26:46.933Z,100781.97
2022-11-15T07:29:13.560Z,100780.38
2022-11-15T07:31:40.222Z,100781.69
2022-11-15T07:34:08.201Z,100776.28
2022-11-15T07:36:34.854Z,100774.31
2022-11-15T07:39:01.472Z,100782.16
2022-11-15T07:41:28.087Z,100784.00
2022-11-15T07:43:54.659Z,100787.88
2022-11-15T07:46:21.336Z,100781.66
2022-11-15T07:48:47.905Z,100787.53
2022-11-15T07:51:20.097Z,100782.66
2022-11-15T07:53:48.714Z,100760.66
2022-11-15T07:56:15.276Z,100767.72
2022-11-15T07:58:41.832Z,100769.34
2022-11-15T08:01:10.726Z,100772.03
2022-11-15T08:03:37.728Z,100773.72
2022-11-15T08:06:04.566Z,100781.66
2022-11-15T08:08:31.126Z,100775.16
2022-11-15T08:11:00.822Z,100768.97
2022-11-15T08:13:27.618Z,100761.88
2022-11-15T08:15:59.388Z,100758.13
2022-11-15T08:18:25.946Z,100751.00
2022-11-15T08:20:52.511Z,100750.66
2022-11-15T08:23:19.089Z,100749.94
2022-11-15T08:25:45.659Z,100735.63
2022-11-15T08:28:12.313Z,100735.03
2022-11-15T08:30:42.547Z,100728.78
2022-11-15T08:33:11.905Z,100728.66
2022-11-15T08:35:38.514Z,100725.72
2022-11-15T08:38:09.846Z,100726.09
2022-11-15T08:40:41.015Z,100733.19
2022-11-15T08:43:10.049Z,100724.59
2022-11-15T08:45:39.890Z,100735.37
2022-11-15T08:48:06.969Z,100732.53
2022-11-15T08:50:33.671Z,100722.53
2022-11-15T08:53:09.299Z,100718.00
2022-11-15T08:55:42.332Z,100719.84
2022-11-15T08:58:09.223Z,100722.38
2022-11-15T09:00:38.233Z,100719.59
2022-11-15T09:03:06.367Z,100707.72
2022-11-15T09:05:33.061Z,100712.84
2022-11-15T09:07:59.617Z,100713.44
2022-11-15T09:10:26.156Z,100721.25
2022-11-15T09:12:52.882Z,100704.03
2022-11-15T09:15:20.676Z,100710.25
2022-11-15T09:17:47.240Z,100700.06
2022-11-15T09:20:13.842Z,100693.59
2022-11-15T09:22:40.591Z,100685.25
2022-11-15T09:25:10.904Z,100685.09
2022-11-15T09:27:37.817Z,100690.16
2022-11-15T09:30:05.309Z,100681.59
2022-11-15T09:32:37.821Z,100692.00
2022-11-15T09:35:05.967Z,100676.19
2022-11-15T09:37:33.279Z,100676.41
2022-11-15T09:39:59.852Z,100677.84
2022-11-15T09:42:31.026Z,100679.34
2022-11-15T09:45:25.353Z,100674.69
2022-11-15T09:48:01.510Z,100670.69
2022-11-15T09:51:28.357Z,100668.88
2022-11-15T09:57:06.022Z,100672.78
2022-11-15T09:59:38.422Z,100667.09
2022-11-15T10:02:29.634Z,100670.31
2022-11-15T10:04:57.207Z,100664.47
2022-11-15T10:07:31.300Z,100666.38
2022-11-15T10:10:36.201Z,100657.97
2022-11-15T10:13:02.797Z,100652.00
2022-11-15T10:15:29.416Z,100650.97
2022-11-15T10:18:15.939Z,100658.31
2022-11-15T10:20:58.474Z,100651.06
2022-11-15T10:23:25.125Z,100630.59
2022-11-15T10:25:56.368Z,100632.41
2022-11-15T10:28:27.614Z,100629.75
2022-11-15T10:30:55.872Z,100627.94
2022-11-15T10:33:28.292Z,100628.03
2022-11-15T10:36:10.174Z,100622.34
2022-11-15T10:38:51.761Z,100617.09
2022-11-15T10:41:23.822Z,100612.97
2022-11-15T10:44:15.472Z,100606.37
2022-11-15T10:46:47.390Z,100609.63
2022-11-15T10:49:15.276Z,100597.06
2022-11-15T10:51:45.851Z,100590.59
2022-11-15T10:54:15.806Z,100588.25
2022-11-15T10:56:45.228Z,100588.06
2022-11-15T10:59:30.447Z,100588.31
2022-11-15T11:01:58.473Z,100587.31
2022-11-15T11:04:25.066Z,100575.00
2022-11-15T11:06:56.336Z,100567.78
2022-11-15T11:09:30.506Z,100567.56
2022-11-15T11:11:57.259Z,100566.06
2022-11-15T11:14:29.233Z,100563.03
2022-11-15T11:17:01.869Z,100562.84
2022-11-15T11:20:00.787Z,100554.56
2022-11-15T11:22:43.122Z,100554.16
2022-11-15T11:25:31.290Z,100551.94
2022-11-15T11:27:58.091Z,100545.69
2022-11-15T11:30:31.368Z,100545.09
2022-11-15T11:33:04.583Z,100542.56
2022-11-15T11:35:31.956Z,100546.25
2022-11-15T11:38:03.872Z,100539.59
2022-11-15T11:40:42.054Z,100553.34
2022-11-15T11:43:14.441Z,100543.56
2022-11-15T11:46:08.676Z,100530.69
2022-11-15T11:49:11.567Z,100520.16
2022-11-15T11:51:42.943Z,100513.38
2022-11-15T11:54:36.912Z,100521.69
2022-11-15T11:57:04.773Z,100518.66
2022-11-15T11:59:43.461Z,100511.31
2022-11-15T12:02:39.280Z,100513.28
2022-11-15T12:05:19.997Z,100506.75
2022-11-15T12:07:46.570Z,100503.09
2022-11-15T12:10:29.542Z,100500.75
2022-11-15T12:13:11.472Z,100493.63
2022-11-15T12:15:47.193Z,100485.34
2022-11-15T12:18:15.598Z,100484.66
2022-11-15T12:20:48.822Z,100483.22
2022-11-15T12:23:22.217Z,100476.81
2022-11-15T12:26:16.414Z,100468.13
2022-11-15T12:29:06.400Z,100463.53
2022-11-15T12:31:45.476Z,100475.53
2022-11-15T12:34:21.058Z,100465.03
2022-11-15T12:36:47.972Z,100467.81
2022-11-15T12:39:15.070Z,100466.44
2022-11-15T12:41:42.894Z,100465.31
2022-11-15T12:44:14.021Z,100469.84
2022-11-15T12:46:40.594Z,100466.00
2022-11-15T12:49:25.276Z,100456.44
2022-11-15T12:51:53.198Z,100446.78
2022-11-15T12:54:23.146Z,100449.31
2022-11-15T12:57:04.933Z,100451.31
2022-11-15T12:59:55.963Z,100446.81
2022-11-15T13:02:42.625Z,100432.69
2022-11-15T13:05:24.020Z,100434.84
2022-11-15T13:07:50.697Z,100434.59
2022-11-15T13:10:17.091Z,100430.37
2022-11-15T13:12:43.511Z,100434.81
2022-11-15T13:15:12.768Z,100443.19
2022-11-15T13:17:55.613Z,100439.88
2022-11-15T13:20:32.523Z,100441.41
2022-11-15T13:23:03.656Z,100440.66
2022-11-15T13:26:00.514Z,100443.34
2022-11-15T13:28:33.286Z,100444.69
2022-11-15T13:31:01.822Z,100430.56
2022-11-15T13:33:35.876Z,100433.22
2022-11-15T13:36:17.717Z,100429.69
2022-11-15T13:38:44.304Z,100423.69
2022-11-15T13:41:22.203Z,100426.50
2022-11-15T13:43:50.640Z,100421.41
2022-11-15T13:46:28.235Z,100413.44
2022-11-15T13:49:02.825Z,100411.62
2022-11-15T13:51:45.634Z,100415.38
2022-11-15T13:54:18.371Z,100403.91
2022-11-15T13:56:48.652Z,100390.41
2022-11-15T13:59:38.029Z,100394.06
2022-11-15T14:02:15.718Z,100383.13
2022-11-15T14:04:53.042Z,100392.25
2022-11-15T14:07:21.419Z,100387.56
2022-11-15T14:09:48.102Z,100382.06
2022-11-15T14:12:34.585Z,100376.03
2022-11-15T14:15:03.649Z,100374.94
2022-11-15T14:17:30.121Z,100384.00
2022-11-15T14:19:57.314Z,100378.47
2022-11-15T14:22:27.042Z,100380.03
2022-11-15T14:25:30.065Z,100378.06
2022-11-15T14:28:31.681Z,100365.06
2022-11-15T14:30:59.179Z,100363.69
2022-11-15T14:33:33.790Z,100360.84
2022-11-15T14:36:06.434Z,100353.16
2022-11-15T14:38:33.391Z,100357.81
2022-11-15T14:41:00.122Z,100351.97
2022-11-15T14:43:26.698Z,100348.50
2022-11-15T14:45:53.330Z,100343.75
2022-11-15T14:48:20.440Z,100343.53
2022-11-15T14:50:47.009Z,100341.56
2022-11-15T14:53:17.511Z,100339.22
2022-11-15T14:55:44.078Z,100327.47
2022-11-15T14:58:10.834Z,100325.91
2022-11-15T15:00:38.398Z,100324.47
2022-11-15T15:03:05.379Z,100330.25
2022-11-15T15:05:36.734Z,100332.53
2022-11-15T15:08:03.546Z,100330.09
2022-11-15T15:10:41.066Z,100336.63
2022-11-15T15:13:16.119Z,100330.66
2022-11-15T15:15:42.680Z,100330.53
2022-11-15T15:18:09.673Z,100329.84
2022-11-15T15:20:36.590Z,100326.47
2022-11-15T15:23:03.140Z,100325.72
2022-11-15T15:25:34.246Z,100322.63
2022-11-15T15:28:00.777Z,100309.50
2022-11-15T15:30:28.683Z,100308.66
2022-11-15T15:32:55.501Z,100302.94
2022-11-15T15:35:22.286Z,100307.22
2022-11-15T15:37:49.476Z,100315.16
2022-11-15T15:40:23.891Z,100318.37
2022-11-15T15:42:50.455Z,100331.44
2022-11-15T15:45:18.301Z,100324.81
2022-11-15T15:47:45.000Z,100325.66
2022-11-15T15:50:34.474Z,100324.22
2022-11-15T15:53:02.512Z,100324.81
2022-11-15T15:55:29.198Z,100310.94
2022-11-15T15:57:55.980Z,100308.25
2022-11-15T16:00:24.631Z,100308.91
2022-11-15T16:02:51.569Z,100318.84
2022-11-15T16:05:18.573Z,100303.97
2022-11-15T16:07:45.356Z,100309.09
2022-11-15T16:10:26.354Z,100309.78
2022-11-15T16:12:53.690Z,100302.53
2022-11-15T16:15:20.571Z,100297.75
2022-11-15T16:18:00.705Z,100298.75
2022-11-15T16:20:27.101Z,100294.75
2022-11-15T16:22:53.659Z,100306.22
2022-11-15T16:25:20.330Z,100299.31
2022-11-15T16:27:47.695Z,100301.59
2022-11-15T16:30:18.774Z,100304.13
2022-11-15T16:32:45.587Z,100308.66
2022-11-15T16:35:13.687Z,100307.53
2022-11-15T16:37:44.928Z,100301.75
2022-11-15T16:40:34.701Z,100303.31
2022-11-15T16:43:02.998Z,100296.91
2022-11-15T16:45:29.657Z,100283.06
2022-11-15T16:47:56.540Z,100292.00
2022-11-15T16:50:25.103Z,100290.44
2022-11-15T16:52:56.334Z,100280.28
2022-11-15T16:55:24.288Z,100280.75
2022-11-15T16:57:50.990Z,100273.12
2022-11-15T17:00:18.391Z,100285.00
2022-11-15T17:02:45.952Z,100279.28
2022-11-15T17:05:15.964Z,100273.66
2022-11-15T17:07:50.559Z,100270.66
2022-11-15T17:10:17.237Z,100268.06
2022-11-15T17:12:43.928Z,100275.13
2022-11-15T17:15:11.966Z,100268.50
2022-11-15T17:17:38.533Z,100272.94
2022-11-15T17:20:09.723Z,100273.66
2022-11-15T17:22:37.380Z,100266.03
2022-11-15T17:25:04.728Z,100261.00
2022-11-15T17:27:31.546Z,100262.81
2022-11-15T17:29:58.083Z,100257.31
2022-11-15T17:32:24.662Z,100256.44
2022-11-15T17:34:51.212Z,100255.13
2022-11-15T17:37:17.745Z,100247.34
2022-11-15T17:39:44.372Z,100251.03
2022-11-15T17:42:10.921Z,100247.22
2022-11-15T17:44:37.477Z,100242.81
2022-11-15T17:47:04.047Z,100237.59
2022-11-15T17:49:30.656Z,100231.19
2022-11-15T17:51:57.236Z,100229.09
2022-11-15T17:54:23.790Z,100220.72
2022-11-15T17:56:50.422Z,100216.19
2022-11-15T17:59:21.202Z,100213.91
2022-11-15T18:01:48.222Z,100214.34
2022-11-15T18:04:15.353Z,100212.53
2022-11-15T18:06:41.950Z,100209.66
2022-11-15T18:09:08.560Z,100203.44
2022-11-15T18:11:38.435Z,100200.75
2022-11-15T18:14:06.945Z,100203.00
2022-11-15T18:16:34.902Z,100205.34
2022-11-15T18:19:01.485Z,100198.84
2022-11-15T18:21:29.637Z,100200.53
2022-11-15T18:24:00.077Z,100196.00
2022-11-15T18:26:28.086Z,100197.84
2022-11-15T18:28:56.005Z,100195.72
2022-11-15T18:31:24.413Z,100187.06
2022-11-15T18:33:51.269Z,100183.09
2022-11-15T18:36:20.023Z,100188.19
2022-11-15T18:38:47.129Z,100187.66
2022-11-15T18:41:19.458Z,100190.75
2022-11-15T18:43:46.525Z,100184.94
2022-11-15T18:46:14.885Z,100180.25
2022-11-15T18:48:42.714Z,100187.78
2022-11-15T18:51:13.814Z,100186.50
2022-11-15T18:53:40.711Z,100185.22
2022-11-15T18:56:11.246Z,100181.25
2022-11-15T18:58:40.587Z,100175.59
2022-11-15T19:01:09.608Z,100170.66
2022-11-15T19:03:38.227Z,100172.66
2022-11-15T19:06:06.738Z,100172.34
2022-11-15T19:08:36.723Z,100162.25
2022-11-15T19:11:07.800Z,100164.84
2022-11-15T19:13:34.891Z,100168.41
2022-11-15T19:16:02.310Z,100158.78
2022-11-15T19:18:29.682Z,100156.94
2022-11-15T19:20:56.955Z,100156.91
2022-11-15T19:23:24.151Z,100161.59
2022-11-15T19:25:58.387Z,100146.13
2022-11-15T19:28:25.731Z,100148.31
2022-11-15T19:30:52.271Z,100143.34
2022-11-15T19:33:20.123Z,100137.12
2022-11-15T19:35:48.195Z,100141.31
2022-11-15T19:38:14.856Z,100141.47
2022-11-15T19:40:42.033Z,100140.34
2022-11-15T19:43:08.591Z,100130.16
2022-11-15T19:45:35.194Z,100124.59
2022-11-15T19:48:01.814Z,100133.66
2022-11-15T19:50:28.443Z,100140.75
2022-11-15T19:52:55.136Z,100126.91
2022-11-15T19:55:21.732Z,100130.72
2022-11-15T19:57:48.462Z,100123.16
2022-11-15T20:00:15.142Z,100120.34
2022-11-15T20:02:41.700Z,100114.56
2022-11-15T20:05:08.512Z,100121.31
2022-11-15T20:07:35.136Z,100112.25
2022-11-15T20:10:01.723Z,100103.50
2022-11-15T20:12:28.393Z,100102.28
2022-11-15T20:14:55.026Z,100096.59
2022-11-15T20:17:21.760Z,100085.59
2022-11-15T20:19:48.320Z,100093.38
2022-11-15T20:22:14.878Z,100081.44
2022-11-15T20:24:41.414Z,100086.28
2022-11-15T20:27:08.652Z,100088.53
2022-11-15T20:29:35.177Z,100082.59
2022-11-15T20:32:01.738Z,100087.44
2022-11-15T20:34:28.482Z,100086.72
2022-11-15T20:36:55.119Z,100087.09
2022-11-15T20:39:21.677Z,100085.09
2022-11-15T20:41:48.481Z,100077.13
2022-11-15T20:44:15.070Z,100081.19
2022-11-15T20:46:41.734Z,100072.22
2022-11-15T20:49:08.328Z,100073.63
2022-11-15T20:51:34.998Z,100074.16
2022-11-15T20:54:02.130Z,100064.72
2022-11-15T20:56:28.742Z,100066.28
2022-11-15T20:58:56.487Z,100067.16
2022-11-15T21:01:24.462Z,100064.63
2022-11-15T21:03:52.942Z,100062.12
2022-11-15T21:06:21.025Z,100062.88
2022-11-15T21:09:09.645Z,100062.47
2022-11-15T21:11:55.048Z,100073.22
2022-11-15T21:14:21.721Z,100067.56
2022-11-15T21:16:48.307Z,100063.59
2022-11-15T21:19:14.860Z,100065.56
2022-11-15T21:21:44.136Z,100055.44
2022-11-15T21:24:10.860Z,100046.53
2022-11-15T21:26:37.744Z,100047.56
2022-11-15T21:29:04.329Z,100045.44
2022-11-15T21:31:31.960Z,100040.50
2022-11-15T21:34:00.872Z,100032.50
2022-11-15T21:36:27.424Z,100037.22
2022-11-15T21:38:55.189Z,100041.25
2022-11-15T21:41:21.789Z,100035.25
2022-11-15T21:43:48.425Z,100032.97
2022-11-15T21:46:15.004Z,100018.91
2022-11-15T21:48:41.591Z,100021.75
2022-11-15T21:51:09.831Z,100021.22
2022-11-15T21:53:36.441Z,100023.53
2022-11-15T21:56:03.137Z,100028.25
2022-11-15T21:58:29.956Z,100020.31
2022-11-15T22:01:15.382Z,100023.22
2022-11-15T22:03:42.234Z,100020.13
2022-11-15T22:06:11.835Z,100027.34
2022-11-15T22:08:43.150Z,100032.12
2022-11-15T22:11:09.795Z,100024.59
2022-11-15T22:13:36.453Z,100028.44
2022-11-15T22:16:03.030Z,100026.97
2022-11-15T22:18:29.706Z,100026.50
2022-11-15T22:20:57.326Z,100018.84
2022-11-15T22:23:24.710Z,100022.94
2022-11-15T22:25:51.612Z,100016.09
2022-11-15T22:28:18.313Z,100007.72
2022-11-15T22:30:45.814Z,100007.25
2022-11-15T22:33:12.640Z,100000.41
2022-11-15T22:35:39.518Z,99991.22
2022-11-15T22:38:06.083Z,99995.13
2022-11-15T22:40:32.655Z,99985.87
2022-11-15T22:42:59.199Z,99984.44
2022-11-15T22:45:25.762Z,99978.44
2022-11-15T22:47:52.354Z,99973.47
2022-11-15T22:50:19.019Z,99972.75
2022-11-15T22:52:45.606Z,99972.13
2022-11-15T22:55:12.157Z,99971.50
2022-11-15T22:57:39.245Z,99966.53
2022-11-15T23:00:11.720Z,99961.47
2022-11-15T23:02:38.366Z,99964.25
2022-11-15T23:05:05.597Z,99956.72
2022-11-15T23:07:33.735Z,99954.94
2022-11-15T23:10:19.578Z,99958.66
2022-11-15T23:13:05.322Z,99952.75
2022-11-15T23:15:51.906Z,99946.75
2022-11-15T23:18:18.993Z,99953.91
2022-11-15T23:20:45.653Z,99956.78
2022-11-15T23:23:12.624Z,99946.34
2022-11-15T23:25:39.218Z,99946.44
2022-11-15T23:28:05.877Z,99941.28
2022-11-15T23:30:54.001Z,99932.63
2022-11-15T23:33:39.065Z,99930.06
2022-11-15T23:36:06.118Z,99923.19
2022-11-15T23:38:35.202Z,99921.59
2022-11-15T23:41:01.887Z,99921.78
2022-11-15T23:43:28.536Z,99920.97
2022-11-15T23:45:55.130Z,99912.31
2022-11-15T23:48:21.735Z,99914.97
2022-11-15T23:50:48.630Z,99910.78
2022-11-15T23:53:15.851Z,99911.69
2022-11-15T23:55:42.457Z,99905.53
2022-11-15T23:58:09.023Z,99903.13
